createdAt,value
2019-05-20T00:02:24.716Z,10.67
2019-05-20T00:07:23.630Z,10.83
2019-05-20T00:12:25.717Z,12.10
2019-05-20T00:17:27.850Z,11.30
2019-05-20T00:22:29.954Z,11.17
2019-05-20T00:27:32.054Z,11.87
2019-05-20T00:32:40.989Z,10.43
2019-05-20T00:37:38.623Z,10.70
2019-05-20T00:42:40.800Z,9.70
2019-05-20T00:47:42.854Z,10.93
2019-05-20T00:52:44.919Z,10.23
2019-05-20T00:57:47.091Z,10.27
2019-05-20T01:02:56.414Z,10.37
2019-05-20T01:07:53.197Z,10.63
2019-05-20T01:12:55.346Z,10.90
2019-05-20T01:17:57.469Z,11.43
2019-05-20T01:22:59.653Z,10.90
2019-05-20T01:28:01.713Z,10.13
2019-05-20T01:33:13.209Z,11.07
2019-05-20T01:38:07.724Z,10.50
2019-05-20T01:43:09.817Z,12.87
2019-05-20T01:48:11.897Z,10.23
2019-05-20T01:53:13.951Z,10.80
2019-05-20T01:58:16.016Z,10.90
2019-05-20T02:03:30.931Z,11.57
2019-05-20T02:08:22.086Z,11.23
2019-05-20T02:13:26.630Z,9.93
2019-05-20T02:18:28.717Z,11.67
2019-05-20T02:23:30.755Z,10.70
2019-05-20T02:28:32.857Z,11.17
2019-05-20T02:33:51.063Z,11.97
2019-05-20T02:38:38.980Z,12.10
2019-05-20T02:43:41.032Z,13.50
2019-05-20T02:48:43.117Z,12.77
2019-05-20T02:53:45.175Z,13.07
2019-05-20T02:58:47.322Z,14.57
2019-05-20T03:03:49.422Z,13.63
2019-05-20T03:08:51.529Z,13.83
2019-05-20T03:13:53.618Z,13.67
2019-05-20T03:18:55.716Z,15.40
2019-05-20T03:23:59.022Z,16.17
2019-05-20T03:29:01.946Z,15.43
2019-05-20T03:34:04.322Z,16.67
2019-05-20T03:39:06.495Z,15.83
2019-05-20T03:44:08.626Z,15.63
2019-05-20T03:49:10.716Z,17.20
2019-05-20T03:54:12.803Z,16.97
2019-05-20T03:59:14.980Z,16.87
2019-05-20T04:04:18.402Z,17.80
2019-05-20T04:09:20.535Z,19.60
2019-05-20T04:14:22.624Z,20.37
2019-05-20T04:19:24.807Z,19.83
2019-05-20T04:24:27.150Z,22.83
2019-05-20T04:29:31.069Z,22.70
2019-05-20T04:34:33.237Z,24.07
2019-05-20T04:39:35.430Z,26.13
2019-05-20T04:44:39.817Z,22.90
2019-05-20T04:56:48.811Z,21.57
2019-05-20T05:01:51.129Z,22.13
2019-05-20T05:06:55.077Z,20.93
2019-05-20T05:11:57.189Z,18.93
2019-05-20T05:16:59.873Z,19.00
2019-05-20T05:22:02.059Z,19.00
2019-05-20T05:27:04.853Z,18.73
2019-05-20T05:32:06.978Z,18.77
2019-05-20T05:37:09.055Z,18.47
2019-05-20T05:42:11.128Z,17.62
2019-05-20T05:47:13.252Z,14.38
2019-05-20T05:52:15.347Z,16.17
2019-05-20T05:57:17.410Z,16.37
2019-05-20T06:02:22.340Z,16.62
2019-05-20T06:07:24.446Z,16.07
2019-05-20T06:12:26.424Z,15.98
2019-05-20T06:17:28.817Z,17.10
2019-05-20T06:22:32.612Z,15.23
2019-05-20T06:27:34.903Z,15.48
2019-05-20T06:32:37.123Z,16.80
2019-05-20T06:37:42.676Z,16.00
2019-05-20T06:42:44.704Z,21.40
2019-05-20T06:47:46.792Z,18.92
2019-05-20T06:52:49.296Z,14.18
2019-05-20T06:57:51.360Z,18.80
2019-05-20T07:02:53.465Z,15.72
2019-05-20T07:07:55.497Z,14.43
2019-05-20T07:12:57.619Z,14.70
2019-05-20T07:17:59.688Z,13.53
2019-05-20T07:23:04.137Z,13.28
2019-05-20T07:28:06.233Z,14.58
2019-05-20T07:33:08.336Z,12.40
2019-05-20T07:38:19.147Z,13.00
2019-05-20T07:43:24.486Z,12.13
2019-05-20T07:48:27.586Z,11.22
2019-05-20T07:53:31.018Z,12.60
2019-05-20T07:58:35.890Z,11.78
2019-05-20T08:03:38.809Z,13.03
2019-05-20T08:08:43.411Z,13.18
2019-05-20T08:13:45.566Z,13.80
2019-05-20T08:18:47.779Z,11.68
2019-05-20T08:23:50.383Z,12.93
2019-05-20T08:28:52.676Z,13.13
2019-05-20T08:33:54.893Z,17.10
2019-05-20T08:38:57.027Z,12.28
2019-05-20T08:43:59.132Z,12.65
2019-05-20T08:49:01.265Z,13.13
2019-05-20T08:54:19.816Z,13.32
2019-05-20T08:59:21.958Z,13.78
2019-05-20T09:04:24.031Z,12.07
2019-05-20T09:09:26.179Z,14.00
2019-05-20T09:14:28.714Z,14.20
2019-05-20T09:19:30.924Z,14.85
2019-05-20T09:24:34.856Z,15.03
2019-05-20T09:29:38.156Z,15.60
2019-05-20T09:34:40.950Z,14.38
2019-05-20T09:39:43.049Z,15.25
2019-05-20T09:44:45.123Z,15.78
2019-05-20T09:49:47.199Z,14.73
2019-05-20T09:54:49.305Z,14.15
2019-05-20T09:59:51.373Z,16.40
2019-05-20T10:04:53.579Z,14.20
2019-05-20T10:09:55.688Z,15.25
2019-05-20T10:14:57.898Z,15.63
2019-05-20T10:20:01.203Z,17.02
2019-05-20T10:25:03.875Z,13.60
2019-05-20T10:30:06.702Z,14.18
2019-05-20T10:35:09.497Z,13.88
2019-05-20T10:40:11.992Z,12.43
2019-05-20T10:45:14.456Z,12.33
2019-05-20T10:50:16.843Z,12.15
2019-05-20T10:55:19.287Z,13.55
2019-05-20T11:00:21.576Z,12.35
2019-05-20T11:05:23.630Z,13.95
2019-05-20T11:10:25.797Z,10.80
2019-05-20T11:15:27.887Z,11.95
2019-05-20T11:20:30.010Z,11.73
2019-05-20T11:25:32.128Z,11.55
2019-05-20T11:30:34.189Z,15.35
2019-05-20T11:35:36.264Z,12.53
2019-05-20T11:40:38.329Z,11.73
2019-05-20T11:45:40.444Z,13.30
2019-05-20T11:50:42.663Z,12.40
2019-05-20T11:55:44.707Z,12.10
2019-05-20T12:00:46.750Z,12.90
2019-05-20T12:05:48.875Z,13.83
2019-05-20T12:10:51.039Z,13.38
2019-05-20T12:15:53.084Z,13.65
2019-05-20T12:20:55.175Z,17.87
2019-05-20T12:25:57.265Z,14.03
2019-05-20T12:30:59.420Z,14.43
2019-05-20T12:36:01.501Z,14.18
2019-05-20T12:41:03.544Z,13.10
2019-05-20T12:46:05.640Z,12.78
2019-05-20T12:51:07.788Z,12.90
2019-05-20T12:56:09.879Z,12.70
2019-05-20T13:01:11.981Z,14.58
2019-05-20T13:06:14.026Z,13.95
2019-05-20T13:11:16.127Z,13.38
2019-05-20T13:16:18.221Z,14.20
2019-05-20T13:21:20.257Z,16.30
2019-05-20T13:26:22.353Z,13.98
2019-05-20T13:31:24.568Z,13.32
2019-05-20T13:36:26.631Z,13.93
2019-05-20T13:41:29.123Z,14.20
2019-05-20T13:46:33.613Z,12.33
2019-05-20T13:51:38.569Z,14.90
2019-05-20T13:56:40.240Z,14.07
2019-05-20T14:01:43.997Z,14.18
2019-05-20T14:06:46.112Z,14.00
2019-05-20T14:11:48.228Z,11.78
2019-05-20T14:16:50.330Z,10.78
2019-05-20T14:21:52.402Z,8.65
2019-05-20T14:26:54.637Z,6.78
2019-05-20T14:31:56.805Z,6.23
2019-05-20T14:36:58.898Z,6.40
2019-05-20T14:42:01.064Z,6.50
2019-05-20T14:47:03.310Z,7.00
2019-05-20T14:52:05.461Z,8.25
2019-05-20T14:57:07.538Z,6.83
2019-05-20T15:02:09.842Z,8.17
2019-05-20T15:07:12.065Z,6.55
2019-05-20T15:12:14.210Z,6.90
2019-05-20T15:17:16.276Z,7.05
2019-05-20T15:22:18.430Z,6.97
2019-05-20T15:27:20.518Z,6.90
2019-05-20T15:32:22.643Z,7.40
2019-05-20T15:37:26.943Z,6.70
2019-05-20T15:42:30.483Z,7.00
2019-05-20T15:47:32.543Z,7.37
2019-05-20T15:52:34.702Z,6.67
2019-05-20T15:57:36.761Z,6.55
2019-05-20T16:02:38.862Z,6.58
2019-05-20T16:07:40.991Z,7.10
2019-05-20T16:12:43.634Z,6.03
2019-05-20T16:23:01.307Z,8.70
2019-05-20T16:28:03.560Z,6.78
2019-05-20T16:33:05.666Z,6.17
2019-05-20T16:38:07.834Z,7.73
2019-05-20T16:43:09.959Z,6.90
2019-05-20T16:48:12.284Z,6.58
2019-05-20T16:53:14.515Z,6.85
2019-05-20T16:58:18.911Z,6.85
2019-05-20T17:03:20.991Z,8.78
2019-05-20T17:08:24.629Z,8.48
2019-05-20T17:13:30.201Z,7.45
2019-05-20T17:18:32.260Z,10.70
2019-05-20T17:23:34.341Z,9.28
2019-05-20T17:28:36.527Z,10.13
2019-05-20T17:33:38.703Z,10.07
2019-05-20T17:38:43.190Z,10.10
2019-05-20T17:43:45.441Z,8.70
2019-05-20T17:48:47.516Z,10.47
2019-05-20T17:53:49.810Z,7.73
2019-05-20T17:58:51.932Z,9.70
2019-05-20T18:03:54.061Z,8.30
2019-05-20T18:08:58.120Z,8.40
2019-05-20T18:14:01.191Z,7.90
2019-05-20T18:19:03.425Z,10.10
2019-05-20T18:24:05.468Z,8.40
2019-05-20T18:29:07.637Z,8.00
2019-05-20T18:34:09.763Z,9.63
2019-05-20T18:39:11.813Z,13.23
2019-05-20T18:44:13.909Z,11.33
2019-05-20T18:49:16.024Z,13.50
2019-05-20T18:54:18.095Z,11.17
2019-05-20T18:59:20.181Z,12.23
2019-05-20T19:04:22.297Z,13.00
2019-05-20T19:09:27.797Z,13.10
2019-05-20T19:14:30.010Z,12.70
2019-05-20T19:19:36.531Z,12.57
2019-05-20T19:24:39.599Z,9.17
2019-05-20T19:29:44.471Z,9.27
2019-05-20T19:34:56.028Z,8.97
2019-05-20T19:39:58.099Z,11.60
2019-05-20T19:45:00.244Z,9.83
2019-05-20T19:50:10.677Z,9.10
2019-05-20T19:55:22.299Z,12.40
2019-05-20T20:00:35.624Z,8.87
2019-05-20T20:05:44.599Z,8.47
2019-05-20T20:10:47.958Z,9.40
2019-05-20T20:15:58.599Z,10.10
2019-05-20T20:21:38.155Z,12.00
2019-05-20T20:26:52.688Z,10.13
2019-05-20T20:31:52.443Z,10.27
2019-05-20T20:36:54.612Z,11.43
2019-05-20T20:41:56.664Z,14.33
2019-05-20T20:47:01.134Z,12.80
2019-05-20T20:52:10.606Z,11.13
2019-05-20T20:57:12.775Z,10.97
2019-05-20T21:02:14.975Z,11.17
2019-05-20T21:07:17.166Z,14.23
2019-05-20T21:12:19.234Z,14.43
2019-05-20T21:17:21.284Z,12.73
2019-05-20T21:22:23.398Z,10.50
2019-05-20T21:27:25.492Z,14.37
2019-05-20T21:32:27.624Z,11.37
2019-05-20T21:37:29.747Z,16.60
2019-05-20T21:42:31.818Z,13.67
2019-05-20T21:47:34.018Z,13.83
2019-05-20T21:52:36.115Z,15.63
2019-05-20T21:57:38.288Z,16.90
2019-05-20T22:02:40.356Z,17.07
2019-05-20T22:07:42.407Z,18.70
2019-05-20T22:12:44.571Z,19.73
2019-05-20T22:17:46.642Z,19.60
2019-05-20T22:23:08.360Z,21.63
2019-05-20T22:28:12.903Z,25.93
2019-05-20T22:33:14.446Z,26.43
2019-05-20T22:38:16.537Z,24.20
2019-05-20T22:43:18.632Z,25.23
2019-05-20T22:48:20.676Z,24.63
2019-05-20T22:53:22.815Z,24.73
2019-05-20T22:58:24.885Z,22.80
2019-05-20T23:03:26.976Z,20.63
2019-05-20T23:08:29.101Z,19.07
2019-05-20T23:13:31.264Z,19.83
2019-05-20T23:18:33.617Z,17.57
2019-05-20T23:23:35.678Z,17.33
2019-05-20T23:28:37.746Z,15.67
2019-05-20T23:33:39.848Z,16.73
2019-05-20T23:38:41.919Z,16.03
2019-05-20T23:43:44.065Z,16.77
2019-05-20T23:48:46.150Z,17.00
2019-05-20T23:53:48.194Z,17.70
2019-05-20T23:58:50.271Z,16.03
